Blandford Forum, United Kingdom
Current Conditions -  °F | °C
As of 2:20 PM on Friday 31 Oct 2014 (Local Time) from EGHH Reporting Station
Clear Clear  
Wind Chill: 66°   Ceiling: Unl
Heat Index: 66°   Visibility: 6mi
Dew Point: 57°   Wind: 10mph
Humidity: 73%   Direction: 180°S
Pressure: 29.97"   Gusts: NA
Location:  50.86°N, 2.16°W
Report Text: EGHH 311420Z 18009KT CAVOK 19/14 Q1015
Loading
Personal Weather Stations






























Interactive Weather Map
Tropical Storm Tracking
New forecast layout! Learn more

10-Day Weather Forecast

Advertisements
Track Severe Weather on mobile